createdAt,value
2023-03-30T00:03:44.466Z,99659.75
2023-03-30T00:07:48.601Z,99658.19
2023-03-30T00:11:55.119Z,99651.94
2023-03-30T00:15:58.309Z,99656.72
2023-03-30T00:20:06.131Z,99657.69
2023-03-30T00:24:09.497Z,99671.63
2023-03-30T00:28:14.130Z,99658.50
2023-03-30T00:32:17.680Z,99654.78
2023-03-30T00:36:22.344Z,99636.09
2023-03-30T00:40:25.635Z,99625.94
2023-03-30T00:45:14.524Z,99617.19
2023-03-30T00:49:19.234Z,99620.81
2023-03-30T00:53:25.506Z,99614.47
2023-03-30T00:57:29.162Z,99617.00
2023-03-30T01:01:39.146Z,99628.03
2023-03-30T01:05:45.276Z,99617.00
2023-03-30T01:09:48.429Z,99622.50
2023-03-30T01:13:57.352Z,99620.31
2023-03-30T01:18:15.001Z,99617.88
2023-03-30T01:22:53.772Z,99619.50
2023-03-30T01:27:01.176Z,99618.66
2023-03-30T01:31:33.404Z,99633.63
2023-03-30T01:35:58.289Z,99615.94
2023-03-30T01:40:11.262Z,99615.97
2023-03-30T01:44:24.156Z,99621.44
2023-03-30T01:48:33.723Z,99594.88
2023-03-30T01:52:41.347Z,99605.16
2023-03-30T01:56:50.060Z,99588.56
2023-03-30T02:00:57.139Z,99604.91
2023-03-30T02:05:05.298Z,99589.69
2023-03-30T02:09:12.597Z,99597.97
2023-03-30T02:13:19.299Z,99588.81
2023-03-30T02:17:25.089Z,99580.53
2023-03-30T02:21:28.473Z,99574.47
2023-03-30T02:25:32.286Z,99560.09
2023-03-30T02:29:40.300Z,99571.44
2023-03-30T02:33:59.481Z,99583.28
2023-03-30T02:38:36.611Z,99565.59
2023-03-30T02:43:18.461Z,99551.72
2023-03-30T02:47:32.687Z,99551.19
2023-03-30T02:51:43.859Z,99540.69
2023-03-30T02:55:57.029Z,99538.38
2023-03-30T03:00:13.608Z,99538.34
2023-03-30T03:04:19.686Z,99547.13
2023-03-30T03:08:41.351Z,99555.63
2023-03-30T03:12:47.991Z,99560.91
2023-03-30T03:16:51.346Z,99560.63
2023-03-30T03:20:57.060Z,99553.72
2023-03-30T03:25:02.915Z,99554.81
2023-03-30T03:29:32.497Z,99547.66
2023-03-30T03:33:37.548Z,99535.97
2023-03-30T03:37:55.086Z,99524.03
2023-03-30T03:41:58.452Z,99509.44
2023-03-30T03:46:01.916Z,99529.75
2023-03-30T03:50:09.511Z,99527.25
2023-03-30T03:54:14.184Z,99517.06
2023-03-30T03:58:20.359Z,99520.44
2023-03-30T04:02:24.162Z,99535.25
2023-03-30T04:06:29.785Z,99522.66
2023-03-30T04:10:34.455Z,99515.59
2023-03-30T04:14:52.947Z,99528.28
2023-03-30T04:19:25.406Z,99517.59
2023-03-30T04:23:53.177Z,99516.16
2023-03-30T04:28:16.050Z,99518.34
2023-03-30T04:32:38.987Z,99529.09
2023-03-30T04:36:48.365Z,99532.78
2023-03-30T04:41:02.877Z,99530.63
2023-03-30T04:45:34.703Z,99533.34
2023-03-30T04:49:38.887Z,99527.25
2023-03-30T04:54:14.574Z,99530.81
2023-03-30T04:58:36.230Z,99548.47
2023-03-30T05:02:59.725Z,99523.34
2023-03-30T05:07:21.710Z,99523.28
2023-03-30T05:11:45.107Z,99522.66
2023-03-30T05:15:55.712Z,99522.88
2023-03-30T05:20:24.051Z,99528.91
2023-03-30T05:24:46.690Z,99525.03
2023-03-30T05:29:10.171Z,99515.41
2023-03-30T05:33:27.247Z,99531.34
2023-03-30T05:37:51.595Z,99516.19
2023-03-30T05:42:13.535Z,99527.94
2023-03-30T05:46:37.050Z,99540.28
2023-03-30T05:51:02.213Z,99537.75
2023-03-30T05:55:15.722Z,99538.19
2023-03-30T05:59:39.539Z,99539.78
2023-03-30T06:04:16.558Z,99541.88
2023-03-30T06:08:22.576Z,99547.72
2023-03-30T06:12:29.434Z,99549.03
2023-03-30T06:16:33.008Z,99538.69
2023-03-30T06:20:37.521Z,99543.09
2023-03-30T06:24:41.165Z,99556.81
2023-03-30T06:28:46.216Z,99564.16
2023-03-30T06:32:49.366Z,99576.31
2023-03-30T06:36:53.908Z,99564.84
2023-03-30T06:40:59.940Z,99575.88
2023-03-30T06:45:08.608Z,99578.38
2023-03-30T06:49:13.370Z,99587.16
2023-03-30T06:53:20.135Z,99585.25
2023-03-30T06:57:24.659Z,99593.00
2023-03-30T07:01:29.884Z,99606.81
2023-03-30T07:05:52.458Z,99605.19
2023-03-30T07:10:11.306Z,99615.47
2023-03-30T07:14:14.504Z,99629.63
2023-03-30T07:18:20.064Z,99630.75
2023-03-30T07:22:23.674Z,99650.53
2023-03-30T07:26:26.826Z,99714.22
2023-03-30T07:30:35.805Z,99700.88
2023-03-30T07:34:43.503Z,99723.63
2023-03-30T07:38:47.419Z,99732.75
2023-03-30T07:42:50.836Z,99727.53
2023-03-30T07:46:55.056Z,99738.44
2023-03-30T07:51:06.154Z,99754.84
2023-03-30T07:55:13.222Z,99734.53
2023-03-30T07:59:27.122Z,99754.50
2023-03-30T08:03:37.161Z,99721.69
2023-03-30T08:07:43.402Z,99707.06
2023-03-30T08:11:55.533Z,99695.94
2023-03-30T08:15:58.760Z,99671.72
2023-03-30T08:20:04.895Z,99655.31
2023-03-30T08:24:10.414Z,99680.25
2023-03-30T08:28:13.616Z,99676.19
2023-03-30T08:32:16.706Z,99673.66
2023-03-30T08:36:20.405Z,99701.78
2023-03-30T08:40:25.055Z,99685.72
2023-03-30T08:44:37.810Z,99684.31
2023-03-30T08:48:43.072Z,99709.63
2023-03-30T08:52:46.853Z,99765.94
2023-03-30T08:57:00.672Z,99783.63
2023-03-30T09:01:14.806Z,99811.44
2023-03-30T09:05:23.837Z,99793.19
2023-03-30T09:09:30.090Z,99794.06
2023-03-30T09:13:38.228Z,99792.53
2023-03-30T09:17:44.511Z,99789.84
2023-03-30T09:21:47.938Z,99781.19
2023-03-30T09:26:01.289Z,99789.59
2023-03-30T09:30:23.700Z,99821.94
2023-03-30T09:34:28.919Z,99810.59
2023-03-30T09:38:32.672Z,99829.22
2023-03-30T09:42:42.414Z,99827.56
2023-03-30T09:46:46.966Z,99833.50
2023-03-30T09:50:50.174Z,99841.16
2023-03-30T09:54:53.723Z,99857.75
2023-03-30T09:58:57.195Z,99855.00
2023-03-30T10:03:03.759Z,99867.16
2023-03-30T10:07:18.298Z,99853.91
2023-03-30T10:11:31.286Z,99867.34
2023-03-30T10:15:39.030Z,99840.56
2023-03-30T10:19:47.436Z,99838.78
2023-03-30T10:24:02.488Z,99793.91
2023-03-30T10:28:06.744Z,99808.09
2023-03-30T10:32:12.170Z,99788.72
2023-03-30T10:36:19.771Z,99770.25
2023-03-30T10:40:27.641Z,99761.63
2023-03-30T10:44:33.743Z,99775.53
2023-03-30T10:48:53.541Z,99792.97
2023-03-30T10:53:11.233Z,99761.09
2023-03-30T10:57:16.980Z,99763.31
2023-03-30T11:01:27.721Z,99767.66
2023-03-30T11:05:35.852Z,99769.63
2023-03-30T11:09:42.125Z,99749.72
2023-03-30T11:13:49.510Z,99770.06
2023-03-30T11:18:00.663Z,99777.97
2023-03-30T11:22:08.566Z,99774.13
2023-03-30T11:26:16.837Z,99773.94
2023-03-30T11:30:26.718Z,99785.97
2023-03-30T11:34:36.987Z,99787.97
2023-03-30T11:38:47.083Z,99823.31
2023-03-30T11:42:51.805Z,99902.84
2023-03-30T11:47:04.616Z,99915.78
2023-03-30T11:51:23.594Z,99948.94
2023-03-30T11:55:42.271Z,99927.66
2023-03-30T11:59:56.437Z,99927.53
2023-03-30T12:04:07.084Z,99917.13
2023-03-30T12:08:27.108Z,99934.91
2023-03-30T12:12:34.740Z,99937.09
2023-03-30T12:16:47.012Z,99898.50
2023-03-30T12:20:56.718Z,99886.75
2023-03-30T12:25:07.571Z,99869.78
2023-03-30T12:29:52.449Z,99811.78
2023-03-30T12:33:45.049Z,99805.06
2023-03-30T12:37:49.009Z,99791.41
2023-03-30T12:41:58.196Z,99799.75
2023-03-30T12:46:08.354Z,99766.63
2023-03-30T12:50:25.914Z,99788.25
2023-03-30T12:54:47.404Z,99786.53
2023-03-30T12:59:18.193Z,99798.53
2023-03-30T13:03:36.784Z,99783.50
2023-03-30T13:07:42.583Z,99777.81
2023-03-30T13:11:49.485Z,99776.19
2023-03-30T13:15:57.258Z,99770.41
2023-03-30T13:20:29.165Z,99779.53
2023-03-30T13:24:41.113Z,99778.22
2023-03-30T13:28:58.259Z,99768.25
2023-03-30T13:33:12.400Z,99775.97
2023-03-30T13:37:24.236Z,99752.03
2023-03-30T13:41:37.517Z,99752.94
2023-03-30T13:45:51.359Z,99757.94
2023-03-30T13:50:00.321Z,99743.19
2023-03-30T13:54:07.596Z,99751.50
2023-03-30T13:58:15.610Z,99781.38
2023-03-30T14:02:22.770Z,99838.94
2023-03-30T14:06:27.589Z,99830.97
2023-03-30T14:10:30.903Z,99827.78
2023-03-30T14:14:38.609Z,99819.28
2023-03-30T14:18:41.812Z,99795.53
2023-03-30T14:22:47.870Z,99769.19
2023-03-30T14:26:50.892Z,99746.44
2023-03-30T14:30:57.100Z,99752.28
2023-03-30T14:35:00.225Z,99754.81
2023-03-30T14:39:04.326Z,99756.91
2023-03-30T14:43:08.499Z,99746.03
2023-03-30T14:47:13.414Z,99722.25
2023-03-30T14:51:25.694Z,99731.03
2023-03-30T14:55:29.361Z,99737.34
2023-03-30T14:59:37.145Z,99774.81
2023-03-30T15:03:44.491Z,99871.44
2023-03-30T15:07:49.109Z,99860.91
2023-03-30T15:11:57.293Z,99857.09
2023-03-30T15:16:02.037Z,99867.97
2023-03-30T15:20:09.243Z,99838.22
2023-03-30T15:24:18.011Z,99851.97
2023-03-30T15:28:21.519Z,99829.66
2023-03-30T15:32:30.689Z,99836.28
2023-03-30T15:36:40.171Z,99831.75
2023-03-30T15:40:45.779Z,99811.28
2023-03-30T15:44:48.874Z,99802.69
2023-03-30T15:48:54.482Z,99814.44
2023-03-30T15:53:02.070Z,99786.31
2023-03-30T15:57:08.424Z,99776.25
2023-03-30T16:01:15.445Z,99754.13
2023-03-30T16:05:22.270Z,99749.63
2023-03-30T16:09:27.418Z,99745.53
2023-03-30T16:13:30.833Z,99775.28
2023-03-30T16:17:34.938Z,99789.31
2023-03-30T16:21:38.111Z,99790.47
2023-03-30T16:25:45.289Z,99792.78
2023-03-30T16:29:48.683Z,99773.44
2023-03-30T16:33:52.246Z,99783.22
2023-03-30T16:37:55.560Z,99776.31
2023-03-30T16:42:00.816Z,99792.50
2023-03-30T16:46:04.025Z,99815.16
2023-03-30T16:50:19.723Z,99817.72
2023-03-30T16:54:31.085Z,99814.28
2023-03-30T16:58:37.516Z,99825.13
2023-03-30T17:02:40.839Z,99832.81
2023-03-30T17:06:44.038Z,99828.41
2023-03-30T17:10:47.282Z,99828.31
2023-03-30T17:14:51.666Z,99816.63
2023-03-30T17:18:54.928Z,99822.31
2023-03-30T17:22:57.975Z,99820.47
2023-03-30T17:27:01.428Z,99832.00
2023-03-30T17:31:09.845Z,99836.09
2023-03-30T17:35:14.345Z,99835.69
2023-03-30T17:39:17.460Z,99846.59
2023-03-30T17:43:20.813Z,99841.59
2023-03-30T17:47:25.632Z,99845.00
2023-03-30T17:51:29.025Z,99842.75
2023-03-30T17:55:34.390Z,99834.13
2023-03-30T17:59:37.572Z,99825.38
2023-03-30T18:03:42.844Z,99818.81
2023-03-30T18:07:46.126Z,99813.97
2023-03-30T18:11:49.260Z,99811.25
2023-03-30T18:15:54.996Z,99819.56
2023-03-30T18:20:00.298Z,99819.22
2023-03-30T18:24:03.946Z,99824.97
2023-03-30T18:28:14.986Z,99824.53
2023-03-30T18:32:18.091Z,99817.63
2023-03-30T18:36:23.774Z,99823.59
2023-03-30T18:40:31.173Z,99819.56
2023-03-30T18:44:35.921Z,99826.72
2023-03-30T18:48:39.055Z,99813.22
2023-03-30T18:52:43.738Z,99820.75
2023-03-30T18:56:47.889Z,99821.09
2023-03-30T19:00:52.811Z,99825.28
2023-03-30T19:04:59.170Z,99827.16
2023-03-30T19:09:03.724Z,99824.53
2023-03-30T19:13:06.922Z,99823.94
2023-03-30T19:17:10.107Z,99820.75
2023-03-30T19:21:16.649Z,99813.88
2023-03-30T19:25:23.488Z,99818.81
2023-03-30T19:29:26.673Z,99818.31
2023-03-30T19:33:30.035Z,99816.66
2023-03-30T19:37:33.253Z,99815.84
2023-03-30T19:41:38.071Z,99814.41
2023-03-30T19:45:41.533Z,99823.72
2023-03-30T19:49:44.649Z,99811.56
2023-03-30T19:53:47.926Z,99800.97
2023-03-30T19:57:52.649Z,99797.75
2023-03-30T20:01:56.253Z,99805.97
2023-03-30T20:05:59.661Z,99795.97
2023-03-30T20:10:02.755Z,99789.28
2023-03-30T20:14:07.510Z,99795.63
2023-03-30T20:18:11.025Z,99788.22
2023-03-30T20:22:14.349Z,99789.13
2023-03-30T20:26:19.690Z,99793.41
2023-03-30T20:30:24.408Z,99792.00
2023-03-30T20:34:30.795Z,99799.03
2023-03-30T20:38:34.481Z,99787.22
2023-03-30T20:42:40.162Z,99800.78
2023-03-30T20:46:45.171Z,99803.53
2023-03-30T20:50:48.632Z,99787.34
2023-03-30T20:54:52.607Z,99784.59
2023-03-30T20:58:55.963Z,99778.16
2023-03-30T21:03:00.531Z,99777.22
2023-03-30T21:07:03.734Z,99773.38
2023-03-30T21:11:07.517Z,99787.28
2023-03-30T21:15:11.988Z,99778.59
2023-03-30T21:19:19.191Z,99778.81
2023-03-30T21:23:26.309Z,99775.59
2023-03-30T21:27:29.737Z,99766.09
2023-03-30T21:31:33.678Z,99761.56
2023-03-30T21:35:38.512Z,99764.28
2023-03-30T21:39:41.750Z,99768.00
2023-03-30T21:43:47.553Z,99755.16
2023-03-30T21:47:50.797Z,99748.25
2023-03-30T21:51:55.325Z,99735.16
2023-03-30T21:55:59.477Z,99723.13
2023-03-30T22:00:02.920Z,99727.78
2023-03-30T22:04:15.825Z,99723.13
2023-03-30T22:08:20.452Z,99719.78
2023-03-30T22:12:23.669Z,99731.22
2023-03-30T22:16:29.164Z,99720.75
2023-03-30T22:20:32.438Z,99712.41
2023-03-30T22:24:37.333Z,99718.09
2023-03-30T22:28:40.508Z,99701.53
2023-03-30T22:32:43.737Z,99703.84
2023-03-30T22:36:47.101Z,99688.56
2023-03-30T22:40:51.721Z,99677.63
2023-03-30T22:44:55.003Z,99666.66
2023-03-30T22:48:58.326Z,99670.13
2023-03-30T22:53:02.864Z,99651.09
2023-03-30T22:57:07.368Z,99652.63
2023-03-30T23:01:12.219Z,99644.44
2023-03-30T23:05:15.704Z,99633.94
2023-03-30T23:09:18.773Z,99624.53
2023-03-30T23:13:23.369Z,99612.97
2023-03-30T23:17:27.601Z,99602.88
2023-03-30T23:21:34.409Z,99600.34
2023-03-30T23:25:38.304Z,99596.41
2023-03-30T23:29:43.277Z,99578.66
2023-03-30T23:33:46.709Z,99585.91
2023-03-30T23:37:50.140Z,99575.81
2023-03-30T23:41:53.531Z,99576.63
2023-03-30T23:45:58.270Z,99568.66
2023-03-30T23:50:02.204Z,99568.53
2023-03-30T23:54:07.177Z,99550.06
2023-03-30T23:58:10.428Z,99542.78
